createdAt,value
2022-11-04T00:00:29.681Z,1.65
2022-11-04T00:07:31.307Z,2.10
2022-11-04T00:14:14.672Z,1.60
2022-11-04T00:21:26.192Z,1.85
2022-11-04T00:28:31.358Z,3.33
2022-11-04T00:35:14.210Z,2.10
2022-11-04T00:41:56.577Z,1.50
2022-11-04T00:48:38.914Z,1.90
2022-11-04T00:55:21.256Z,2.25
2022-11-04T01:02:04.129Z,3.30
2022-11-04T01:08:47.433Z,2.53
2022-11-04T01:15:29.797Z,3.17
2022-11-04T01:22:12.197Z,2.97
2022-11-04T01:28:56.095Z,3.33
2022-11-04T01:35:38.493Z,1.40
2022-11-04T01:42:22.159Z,1.30
2022-11-04T01:49:23.101Z,1.23
2022-11-04T01:56:11.931Z,1.42
2022-11-04T02:02:59.967Z,1.20
2022-11-04T02:09:44.036Z,2.47
2022-11-04T02:16:32.501Z,2.30
2022-11-04T02:23:52.432Z,1.52
2022-11-04T02:30:40.594Z,1.42
2022-11-04T02:38:04.560Z,2.45
2022-11-04T02:45:26.534Z,1.40
2022-11-04T02:52:11.927Z,1.27
2022-11-04T02:58:58.398Z,2.92
2022-11-04T03:05:44.286Z,1.48
2022-11-04T03:12:37.329Z,3.13
2022-11-04T03:19:53.442Z,2.25
2022-11-04T03:26:46.927Z,1.75
2022-11-04T03:33:48.353Z,2.35
2022-11-04T03:40:30.700Z,2.10
2022-11-04T03:47:17.444Z,1.02
2022-11-04T03:54:00.305Z,3.63
2022-11-04T04:01:16.810Z,1.30
2022-11-04T04:08:14.145Z,2.17
2022-11-04T04:15:04.959Z,2.35
2022-11-04T04:21:56.693Z,2.13
2022-11-04T04:28:40.050Z,2.55
2022-11-04T04:35:42.391Z,1.85
2022-11-04T04:42:43.752Z,2.38
2022-11-04T04:49:34.858Z,2.92
2022-11-04T04:56:17.249Z,2.65
2022-11-04T05:02:59.874Z,4.15
2022-11-04T05:09:42.346Z,1.70
2022-11-04T05:16:24.677Z,2.55
2022-11-04T05:23:07.944Z,4.35
2022-11-04T05:29:50.280Z,2.38
2022-11-04T05:36:35.522Z,3.10
2022-11-04T05:43:18.005Z,3.75
2022-11-04T05:50:00.525Z,7.70
2022-11-04T05:56:42.865Z,3.85
2022-11-04T06:03:30.031Z,3.33
2022-11-04T06:10:12.383Z,6.55
2022-11-04T06:16:54.675Z,3.20
2022-11-04T06:23:37.216Z,4.70
2022-11-04T06:30:19.531Z,4.60
2022-11-04T06:37:01.959Z,6.07
2022-11-04T06:43:44.393Z,4.07
2022-11-04T06:50:26.704Z,5.05
2022-11-04T06:57:12.009Z,6.03
2022-11-04T07:03:56.536Z,7.95
2022-11-04T07:10:38.997Z,6.55
2022-11-04T07:17:21.339Z,6.25
2022-11-04T07:24:03.836Z,9.63
2022-11-04T07:30:46.672Z,10.30
2022-11-04T07:37:28.998Z,5.90
2022-11-04T07:44:12.126Z,8.20
2022-11-04T07:50:59.630Z,8.90
2022-11-04T07:57:41.953Z,6.28
2022-11-04T08:04:24.497Z,5.25
2022-11-04T08:11:17.422Z,5.75
2022-11-04T08:18:00.344Z,5.65
2022-11-04T08:24:42.981Z,6.68
2022-11-04T08:31:33.719Z,5.30
2022-11-04T08:38:16.132Z,3.40
2022-11-04T08:44:58.626Z,5.68
2022-11-04T08:51:44.352Z,2.88
2022-11-04T08:58:26.926Z,2.70
2022-11-04T09:05:10.171Z,5.68
2022-11-04T09:11:52.631Z,6.22
2022-11-04T09:18:35.436Z,6.38
2022-11-04T09:25:17.802Z,5.55
2022-11-04T09:32:01.066Z,6.63
2022-11-04T09:38:44.880Z,3.78
2022-11-04T09:45:29.431Z,5.10
2022-11-04T09:52:21.260Z,6.50
2022-11-04T09:59:04.899Z,4.32
2022-11-04T10:05:56.888Z,4.95
2022-11-04T10:12:46.833Z,6.68
2022-11-04T10:19:56.504Z,4.18
2022-11-04T10:26:46.232Z,2.50
2022-11-04T10:33:37.546Z,3.13
2022-11-04T10:40:29.367Z,3.42
2022-11-04T10:47:39.192Z,5.47
2022-11-04T10:54:22.618Z,3.85
2022-11-04T11:01:24.345Z,3.83
2022-11-04T11:08:30.987Z,3.75
2022-11-04T11:15:30.004Z,3.90
2022-11-04T11:22:31.651Z,3.67
2022-11-04T11:29:18.437Z,5.30
2022-11-04T11:36:17.001Z,5.15
2022-11-04T11:43:00.800Z,2.72
2022-11-04T11:49:43.704Z,5.15
2022-11-04T11:57:07.276Z,4.75
2022-11-04T12:11:16.078Z,3.25
2022-11-04T12:18:02.783Z,8.13
2022-11-04T12:24:56.212Z,5.97
2022-11-04T12:31:59.809Z,6.38
2022-11-04T12:39:31.611Z,5.57
2022-11-04T12:46:36.277Z,4.85
2022-11-04T12:53:27.739Z,4.82
2022-11-04T13:00:14.559Z,4.20
2022-11-04T13:07:01.051Z,6.32
2022-11-04T13:13:43.446Z,5.22
2022-11-04T13:20:40.054Z,4.18
2022-11-04T13:27:48.300Z,4.25
2022-11-04T13:35:08.166Z,4.05
2022-11-04T13:42:05.949Z,5.97
2022-11-04T13:49:11.513Z,4.53
2022-11-04T13:55:54.063Z,4.68
2022-11-04T14:02:44.700Z,4.22
2022-11-04T14:09:32.696Z,4.82
2022-11-04T14:16:24.374Z,4.82
2022-11-04T14:23:23.576Z,6.03
2022-11-04T14:30:07.920Z,2.92
2022-11-04T14:36:56.820Z,4.10
2022-11-04T14:43:43.273Z,2.95
2022-11-04T14:50:28.071Z,4.53
2022-11-04T14:57:15.497Z,8.05
2022-11-04T15:04:24.743Z,4.75
2022-11-04T15:11:17.557Z,4.90
2022-11-04T15:18:21.824Z,5.45
2022-11-04T15:25:11.850Z,2.92
2022-11-04T15:32:05.155Z,3.53
2022-11-04T15:38:52.954Z,7.10
2022-11-04T15:45:37.848Z,5.55
2022-11-04T15:52:26.435Z,4.88
2022-11-04T15:59:14.686Z,5.38
2022-11-04T16:06:05.275Z,6.25
2022-11-04T16:12:47.686Z,4.55
2022-11-04T16:19:32.095Z,7.20
2022-11-04T16:26:14.700Z,2.92
2022-11-04T16:33:10.268Z,3.17
2022-11-04T16:39:53.903Z,3.58
2022-11-04T16:46:36.455Z,5.18
2022-11-04T16:53:18.894Z,6.10
2022-11-04T17:00:01.662Z,4.30
2022-11-04T17:06:46.047Z,3.33
2022-11-04T17:13:33.518Z,4.90
2022-11-04T17:20:19.475Z,5.57
2022-11-04T17:27:01.769Z,4.85
2022-11-04T17:33:44.470Z,5.40
2022-11-04T17:40:26.809Z,6.00
2022-11-04T17:47:14.189Z,3.75
2022-11-04T17:53:56.750Z,5.68
2022-11-04T18:00:39.072Z,4.25
2022-11-04T18:07:21.378Z,6.38
2022-11-04T18:14:03.713Z,4.97
2022-11-04T18:20:46.258Z,10.48
2022-11-04T18:27:28.582Z,8.02
2022-11-04T18:34:13.737Z,8.00
2022-11-04T18:40:56.056Z,3.97
2022-11-04T18:47:38.386Z,4.47
2022-11-04T18:54:20.717Z,4.45
2022-11-04T19:01:12.924Z,8.15
2022-11-04T19:07:57.801Z,5.95
2022-11-04T19:14:40.339Z,7.28
2022-11-04T19:21:24.044Z,10.02
2022-11-04T19:28:32.699Z,8.18
2022-11-04T19:35:09.864Z,6.93
2022-11-04T19:42:10.851Z,11.75
2022-11-04T19:48:53.489Z,5.63
2022-11-04T19:55:36.520Z,8.77
2022-11-04T20:02:19.243Z,30.90
2022-11-04T20:09:07.088Z,9.95
2022-11-04T20:15:49.450Z,9.35
2022-11-04T20:22:31.789Z,9.88
2022-11-04T20:29:19.693Z,9.25
2022-11-04T20:36:02.881Z,9.57
2022-11-04T20:42:47.731Z,9.35
2022-11-04T20:49:32.393Z,13.52
2022-11-04T20:56:18.077Z,16.30
2022-11-04T21:03:00.522Z,13.05
2022-11-04T21:10:06.249Z,11.43
2022-11-04T21:16:48.641Z,11.02
2022-11-04T21:23:31.455Z,9.57
2022-11-04T21:30:13.928Z,12.93
2022-11-04T21:36:56.306Z,10.88
2022-11-04T21:43:39.104Z,13.00
2022-11-04T21:50:21.463Z,11.30
2022-11-04T21:57:03.975Z,11.07
2022-11-04T22:03:54.303Z,14.70
2022-11-04T22:10:36.960Z,10.55
2022-11-04T22:17:19.385Z,12.15
2022-11-04T22:24:02.112Z,13.07
2022-11-04T22:30:44.734Z,12.32
2022-11-04T22:37:27.337Z,10.40
2022-11-04T22:44:09.759Z,8.15
2022-11-04T22:50:57.276Z,9.63
2022-11-04T22:57:40.719Z,7.68
2022-11-04T23:04:23.036Z,8.13
2022-11-04T23:11:28.354Z,12.20
2022-11-04T23:18:31.386Z,7.30
2022-11-04T23:25:13.997Z,7.75
2022-11-04T23:31:56.448Z,8.25
2022-11-04T23:38:38.965Z,7.75
2022-11-04T23:45:40.351Z,9.93
2022-11-04T23:52:41.440Z,9.55
2022-11-04T23:59:42.230Z,9.05
